sensor_id;sensor_type;location;lat;lon;timestamp;P1;durP1;ratioP1;P2;durP2;ratioP2
39982;SDS011;25670;44.782;10.356;2022-10-31T00:00:53;14.00;;;8.32;;
39982;SDS011;25670;44.782;10.356;2022-10-31T00:03:20;22.10;;;8.65;;
39982;SDS011;25670;44.782;10.356;2022-10-31T00:05:48;14.00;;;7.38;;
39982;SDS011;25670;44.782;10.356;2022-10-31T00:08:16;9.95;;;7.78;;
39982;SDS011;25670;44.782;10.356;2022-10-31T00:10:43;11.25;;;7.70;;
39982;SDS011;25670;44.782;10.356;2022-10-31T00:13:10;17.20;;;8.20;;
39982;SDS011;25670;44.782;10.356;2022-10-31T00:15:37;15.40;;;7.65;;
39982;SDS011;25670;44.782;10.356;2022-10-31T00:18:05;16.42;;;7.95;;
39982;SDS011;25670;44.782;10.356;2022-10-31T00:20:32;14.23;;;7.53;;
39982;SDS011;25670;44.782;10.356;2022-10-31T00:22:59;8.20;;;7.47;;
39982;SDS011;25670;44.782;10.356;2022-10-31T00:25:27;19.23;;;8.43;;
39982;SDS011;25670;44.782;10.356;2022-10-31T00:27:55;16.15;;;8.02;;
39982;SDS011;25670;44.782;10.356;2022-10-31T00:30:21;8.18;;;7.05;;
39982;SDS011;25670;44.782;10.356;2022-10-31T00:32:47;11.82;;;7.45;;
39982;SDS011;25670;44.782;10.356;2022-10-31T00:35:14;10.25;;;6.95;;
39982;SDS011;25670;44.782;10.356;2022-10-31T00:37:42;8.02;;;7.20;;
39982;SDS011;25670;44.782;10.356;2022-10-31T00:40:08;17.65;;;7.90;;
39982;SDS011;25670;44.782;10.356;2022-10-31T00:42:35;11.70;;;7.03;;
39982;SDS011;25670;44.782;10.356;2022-10-31T00:45:02;10.32;;;7.00;;
39982;SDS011;25670;44.782;10.356;2022-10-31T00:47:28;10.00;;;6.85;;
39982;SDS011;25670;44.782;10.356;2022-10-31T00:49:54;15.35;;;7.95;;
39982;SDS011;25670;44.782;10.356;2022-10-31T00:52:21;10.82;;;7.05;;
39982;SDS011;25670;44.782;10.356;2022-10-31T00:54:47;13.65;;;6.82;;
39982;SDS011;25670;44.782;10.356;2022-10-31T00:57:13;9.18;;;7.00;;
39982;SDS011;25670;44.782;10.356;2022-10-31T00:59:40;12.10;;;7.55;;
39982;SDS011;25670;44.782;10.356;2022-10-31T01:02:06;12.50;;;6.90;;
39982;SDS011;25670;44.782;10.356;2022-10-31T01:04:33;8.73;;;7.53;;
39982;SDS011;25670;44.782;10.356;2022-10-31T01:06:59;13.60;;;7.40;;
39982;SDS011;25670;44.782;10.356;2022-10-31T01:09:26;18.42;;;7.82;;
39982;SDS011;25670;44.782;10.356;2022-10-31T01:11:52;18.27;;;6.90;;
39982;SDS011;25670;44.782;10.356;2022-10-31T01:14:22;16.35;;;6.60;;
39982;SDS011;25670;44.782;10.356;2022-10-31T01:16:48;18.38;;;8.48;;
39982;SDS011;25670;44.782;10.356;2022-10-31T01:19:15;9.38;;;6.28;;
39982;SDS011;25670;44.782;10.356;2022-10-31T01:21:41;15.07;;;6.97;;
39982;SDS011;25670;44.782;10.356;2022-10-31T01:24:08;11.20;;;7.00;;
39982;SDS011;25670;44.782;10.356;2022-10-31T01:26:37;10.55;;;6.68;;
39982;SDS011;25670;44.782;10.356;2022-10-31T01:29:05;7.72;;;7.03;;
39982;SDS011;25670;44.782;10.356;2022-10-31T01:31:35;8.15;;;6.28;;
39982;SDS011;25670;44.782;10.356;2022-10-31T01:34:03;9.70;;;7.20;;
39982;SDS011;25670;44.782;10.356;2022-10-31T01:36:31;11.48;;;5.95;;
39982;SDS011;25670;44.782;10.356;2022-10-31T01:38:59;9.07;;;6.40;;
39982;SDS011;25670;44.782;10.356;2022-10-31T01:41:29;10.98;;;6.22;;
39982;SDS011;25670;44.782;10.356;2022-10-31T01:43:58;12.30;;;5.90;;
39982;SDS011;25670;44.782;10.356;2022-10-31T01:49:26;10.70;;;6.43;;
39982;SDS011;25670;44.782;10.356;2022-10-31T01:51:58;10.27;;;6.13;;
39982;SDS011;25670;44.782;10.356;2022-10-31T01:54:58;12.18;;;6.65;;
39982;SDS011;25670;44.782;10.356;2022-10-31T01:57:30;14.25;;;6.45;;
39982;SDS011;25670;44.782;10.356;2022-10-31T02:00:00;11.70;;;6.20;;
39982;SDS011;25670;44.782;10.356;2022-10-31T02:02:38;7.80;;;6.10;;
39982;SDS011;25670;44.782;10.356;2022-10-31T02:05:06;9.50;;;6.35;;
39982;SDS011;25670;44.782;10.356;2022-10-31T02:10:11;15.55;;;5.75;;
39982;SDS011;25670;44.782;10.356;2022-10-31T02:12:37;9.82;;;5.63;;
39982;SDS011;25670;44.782;10.356;2022-10-31T02:15:05;7.85;;;6.15;;
39982;SDS011;25670;44.782;10.356;2022-10-31T02:17:31;9.30;;;6.22;;
39982;SDS011;25670;44.782;10.356;2022-10-31T02:20:12;9.85;;;6.50;;
39982;SDS011;25670;44.782;10.356;2022-10-31T02:25:42;9.18;;;6.38;;
39982;SDS011;25670;44.782;10.356;2022-10-31T02:33:30;15.27;;;5.85;;
39982;SDS011;25670;44.782;10.356;2022-10-31T02:39:02;10.50;;;7.05;;
39982;SDS011;25670;44.782;10.356;2022-10-31T02:41:49;15.18;;;6.85;;
39982;SDS011;25670;44.782;10.356;2022-10-31T02:47:22;15.40;;;6.97;;
39982;SDS011;25670;44.782;10.356;2022-10-31T02:49:56;14.65;;;8.25;;
39982;SDS011;25670;44.782;10.356;2022-10-31T02:52:32;9.20;;;7.45;;
39982;SDS011;25670;44.782;10.356;2022-10-31T02:55:09;9.77;;;8.77;;
39982;SDS011;25670;44.782;10.356;2022-10-31T02:58:12;13.70;;;8.30;;
39982;SDS011;25670;44.782;10.356;2022-10-31T03:03:14;16.08;;;8.52;;
39982;SDS011;25670;44.782;10.356;2022-10-31T03:08:24;11.63;;;8.10;;
39982;SDS011;25670;44.782;10.356;2022-10-31T03:11:00;13.50;;;7.75;;
39982;SDS011;25670;44.782;10.356;2022-10-31T03:16:14;10.80;;;7.05;;
39982;SDS011;25670;44.782;10.356;2022-10-31T03:18:55;8.05;;;6.72;;
39982;SDS011;25670;44.782;10.356;2022-10-31T03:21:35;15.80;;;7.20;;
39982;SDS011;25670;44.782;10.356;2022-10-31T03:24:06;9.15;;;7.10;;
39982;SDS011;25670;44.782;10.356;2022-10-31T03:26:35;11.15;;;6.85;;
39982;SDS011;25670;44.782;10.356;2022-10-31T03:29:05;12.00;;;7.80;;
39982;SDS011;25670;44.782;10.356;2022-10-31T03:31:38;18.60;;;7.18;;
39982;SDS011;25670;44.782;10.356;2022-10-31T03:34:18;7.88;;;6.63;;
39982;SDS011;25670;44.782;10.356;2022-10-31T03:36:48;8.07;;;6.00;;
39982;SDS011;25670;44.782;10.356;2022-10-31T03:39:18;8.52;;;7.13;;
39982;SDS011;25670;44.782;10.356;2022-10-31T03:41:58;11.60;;;5.90;;
39982;SDS011;25670;44.782;10.356;2022-10-31T03:44:30;12.13;;;6.32;;
39982;SDS011;25670;44.782;10.356;2022-10-31T03:47:01;8.10;;;6.43;;
39982;SDS011;25670;44.782;10.356;2022-10-31T03:49:29;14.55;;;6.70;;
39982;SDS011;25670;44.782;10.356;2022-10-31T03:54:54;6.55;;;5.90;;
39982;SDS011;25670;44.782;10.356;2022-10-31T03:57:35;10.13;;;5.97;;
39982;SDS011;25670;44.782;10.356;2022-10-31T04:02:45;9.75;;;5.13;;
39982;SDS011;25670;44.782;10.356;2022-10-31T04:05:27;7.90;;;6.55;;
39982;SDS011;25670;44.782;10.356;2022-10-31T04:07:59;13.00;;;6.85;;
39982;SDS011;25670;44.782;10.356;2022-10-31T04:10:30;12.80;;;6.70;;
39982;SDS011;25670;44.782;10.356;2022-10-31T04:13:00;10.35;;;6.20;;
39982;SDS011;25670;44.782;10.356;2022-10-31T04:15:38;6.80;;;6.07;;
39982;SDS011;25670;44.782;10.356;2022-10-31T04:18:06;10.32;;;5.22;;
39982;SDS011;25670;44.782;10.356;2022-10-31T04:20:36;10.00;;;5.82;;
39982;SDS011;25670;44.782;10.356;2022-10-31T04:23:05;11.10;;;5.47;;
39982;SDS011;25670;44.782;10.356;2022-10-31T04:25:48;10.82;;;4.80;;
39982;SDS011;25670;44.782;10.356;2022-10-31T04:28:16;11.45;;;5.78;;
39982;SDS011;25670;44.782;10.356;2022-10-31T04:30:42;10.57;;;5.55;;
39982;SDS011;25670;44.782;10.356;2022-10-31T04:33:09;7.35;;;5.10;;
39982;SDS011;25670;44.782;10.356;2022-10-31T04:35:36;12.40;;;5.43;;
39982;SDS011;25670;44.782;10.356;2022-10-31T04:38:02;10.63;;;4.75;;
39982;SDS011;25670;44.782;10.356;2022-10-31T04:40:29;4.80;;;4.07;;
39982;SDS011;25670;44.782;10.356;2022-10-31T04:43:30;8.15;;;4.78;;
39982;SDS011;25670;44.782;10.356;2022-10-31T04:45:59;6.07;;;4.93;;
39982;SDS011;25670;44.782;10.356;2022-10-31T04:48:26;6.53;;;5.70;;
39982;SDS011;25670;44.782;10.356;2022-10-31T04:50:53;7.88;;;6.43;;
39982;SDS011;25670;44.782;10.356;2022-10-31T04:53:20;10.18;;;6.88;;
39982;SDS011;25670;44.782;10.356;2022-10-31T04:58:42;10.05;;;5.75;;
39982;SDS011;25670;44.782;10.356;2022-10-31T05:01:31;8.85;;;6.60;;
39982;SDS011;25670;44.782;10.356;2022-10-31T05:03:59;8.15;;;6.88;;
39982;SDS011;25670;44.782;10.356;2022-10-31T05:06:25;8.48;;;7.47;;
39982;SDS011;25670;44.782;10.356;2022-10-31T05:08:51;9.98;;;7.30;;
39982;SDS011;25670;44.782;10.356;2022-10-31T05:11:18;9.73;;;5.60;;
39982;SDS011;25670;44.782;10.356;2022-10-31T05:13:45;6.95;;;5.20;;
39982;SDS011;25670;44.782;10.356;2022-10-31T05:16:11;9.23;;;5.07;;
39982;SDS011;25670;44.782;10.356;2022-10-31T05:18:56;10.88;;;5.05;;
39982;SDS011;25670;44.782;10.356;2022-10-31T05:21:45;6.30;;;4.82;;
39982;SDS011;25670;44.782;10.356;2022-10-31T05:24:11;13.05;;;4.72;;
39982;SDS011;25670;44.782;10.356;2022-10-31T05:26:40;8.82;;;5.22;;
39982;SDS011;25670;44.782;10.356;2022-10-31T05:29:07;7.95;;;5.13;;
39982;SDS011;25670;44.782;10.356;2022-10-31T05:31:34;8.80;;;5.30;;
39982;SDS011;25670;44.782;10.356;2022-10-31T05:34:02;5.88;;;5.30;;
39982;SDS011;25670;44.782;10.356;2022-10-31T05:36:49;13.45;;;6.55;;
39982;SDS011;25670;44.782;10.356;2022-10-31T05:39:18;14.75;;;7.03;;
39982;SDS011;25670;44.782;10.356;2022-10-31T05:41:52;13.00;;;7.60;;
39982;SDS011;25670;44.782;10.356;2022-10-31T05:44:21;11.45;;;7.10;;
39982;SDS011;25670;44.782;10.356;2022-10-31T05:47:06;28.95;;;14.70;;
39982;SDS011;25670;44.782;10.356;2022-10-31T05:49:51;13.07;;;11.13;;
39982;SDS011;25670;44.782;10.356;2022-10-31T05:52:36;9.77;;;7.75;;
39982;SDS011;25670;44.782;10.356;2022-10-31T05:55:13;13.63;;;8.25;;
39982;SDS011;25670;44.782;10.356;2022-10-31T05:57:47;10.13;;;7.45;;
39982;SDS011;25670;44.782;10.356;2022-10-31T06:00:14;8.30;;;7.55;;
39982;SDS011;25670;44.782;10.356;2022-10-31T06:02:46;11.15;;;8.07;;
39982;SDS011;25670;44.782;10.356;2022-10-31T06:05:24;8.77;;;7.97;;
39982;SDS011;25670;44.782;10.356;2022-10-31T06:07:52;9.00;;;7.35;;
39982;SDS011;25670;44.782;10.356;2022-10-31T06:10:18;11.05;;;7.72;;
39982;SDS011;25670;44.782;10.356;2022-10-31T06:12:50;9.82;;;8.02;;
39982;SDS011;25670;44.782;10.356;2022-10-31T06:15:32;11.10;;;7.93;;
39982;SDS011;25670;44.782;10.356;2022-10-31T06:18:00;13.32;;;8.15;;
39982;SDS011;25670;44.782;10.356;2022-10-31T06:20:30;9.95;;;8.23;;
39982;SDS011;25670;44.782;10.356;2022-10-31T06:23:02;15.57;;;7.35;;
39982;SDS011;25670;44.782;10.356;2022-10-31T06:25:31;9.75;;;7.47;;
39982;SDS011;25670;44.782;10.356;2022-10-31T06:27:58;9.98;;;8.02;;
39982;SDS011;25670;44.782;10.356;2022-10-31T06:30:34;12.23;;;7.85;;
39982;SDS011;25670;44.782;10.356;2022-10-31T06:33:05;10.77;;;7.18;;
39982;SDS011;25670;44.782;10.356;2022-10-31T06:35:34;10.20;;;7.75;;
39982;SDS011;25670;44.782;10.356;2022-10-31T06:38:00;8.00;;;6.95;;
39982;SDS011;25670;44.782;10.356;2022-10-31T06:40:37;13.38;;;6.63;;
39982;SDS011;25670;44.782;10.356;2022-10-31T06:43:14;12.93;;;7.68;;
39982;SDS011;25670;44.782;10.356;2022-10-31T06:45:41;19.27;;;7.05;;
39982;SDS011;25670;44.782;10.356;2022-10-31T06:48:31;11.75;;;7.13;;
39982;SDS011;25670;44.782;10.356;2022-10-31T06:51:15;15.25;;;6.03;;
39982;SDS011;25670;44.782;10.356;2022-10-31T06:53:41;9.38;;;6.60;;
39982;SDS011;25670;44.782;10.356;2022-10-31T06:56:10;8.00;;;6.03;;
39982;SDS011;25670;44.782;10.356;2022-10-31T06:58:42;9.27;;;6.50;;
39982;SDS011;25670;44.782;10.356;2022-10-31T07:01:10;10.20;;;6.57;;
39982;SDS011;25670;44.782;10.356;2022-10-31T07:03:36;10.35;;;6.20;;
39982;SDS011;25670;44.782;10.356;2022-10-31T07:06:03;10.55;;;5.72;;
39982;SDS011;25670;44.782;10.356;2022-10-31T07:08:31;13.43;;;6.60;;
39982;SDS011;25670;44.782;10.356;2022-10-31T07:10:58;6.93;;;6.22;;
39982;SDS011;25670;44.782;10.356;2022-10-31T07:13:26;12.30;;;5.90;;
39982;SDS011;25670;44.782;10.356;2022-10-31T07:16:06;6.20;;;5.65;;
39982;SDS011;25670;44.782;10.356;2022-10-31T07:18:35;11.57;;;6.10;;
39982;SDS011;25670;44.782;10.356;2022-10-31T07:21:02;7.60;;;5.95;;
39982;SDS011;25670;44.782;10.356;2022-10-31T07:23:28;13.05;;;5.82;;
39982;SDS011;25670;44.782;10.356;2022-10-31T07:26:17;9.68;;;5.70;;
39982;SDS011;25670;44.782;10.356;2022-10-31T07:28:46;14.70;;;5.00;;
39982;SDS011;25670;44.782;10.356;2022-10-31T07:31:14;6.43;;;4.30;;
39982;SDS011;25670;44.782;10.356;2022-10-31T07:33:41;9.77;;;4.35;;
39982;SDS011;25670;44.782;10.356;2022-10-31T07:36:28;13.45;;;5.63;;
39982;SDS011;25670;44.782;10.356;2022-10-31T07:38:59;6.88;;;3.50;;
39982;SDS011;25670;44.782;10.356;2022-10-31T07:41:25;5.45;;;3.88;;
39982;SDS011;25670;44.782;10.356;2022-10-31T07:43:53;14.57;;;3.90;;
39982;SDS011;25670;44.782;10.356;2022-10-31T07:46:41;6.75;;;4.28;;
39982;SDS011;25670;44.782;10.356;2022-10-31T07:49:26;9.43;;;4.30;;
39982;SDS011;25670;44.782;10.356;2022-10-31T07:55:31;13.65;;;3.47;;
39982;SDS011;25670;44.782;10.356;2022-10-31T07:58:05;9.00;;;4.00;;
39982;SDS011;25670;44.782;10.356;2022-10-31T08:03:59;6.68;;;3.33;;
39982;SDS011;25670;44.782;10.356;2022-10-31T08:06:50;6.68;;;3.70;;
39982;SDS011;25670;44.782;10.356;2022-10-31T08:09:27;11.30;;;4.32;;
39982;SDS011;25670;44.782;10.356;2022-10-31T08:11:57;15.55;;;4.75;;
39982;SDS011;25670;44.782;10.356;2022-10-31T08:14:23;10.05;;;4.05;;
39982;SDS011;25670;44.782;10.356;2022-10-31T08:16:52;10.38;;;4.10;;
39982;SDS011;25670;44.782;10.356;2022-10-31T08:19:19;27.55;;;6.40;;
39982;SDS011;25670;44.782;10.356;2022-10-31T08:21:45;10.25;;;4.78;;
39982;SDS011;25670;44.782;10.356;2022-10-31T08:24:12;8.82;;;4.32;;
39982;SDS011;25670;44.782;10.356;2022-10-31T08:26:39;32.70;;;17.30;;
39982;SDS011;25670;44.782;10.356;2022-10-31T08:29:08;18.83;;;12.05;;
39982;SDS011;25670;44.782;10.356;2022-10-31T08:31:40;10.43;;;8.02;;
39982;SDS011;25670;44.782;10.356;2022-10-31T08:34:39;11.45;;;6.10;;
39982;SDS011;25670;44.782;10.356;2022-10-31T08:37:24;11.20;;;6.15;;
39982;SDS011;25670;44.782;10.356;2022-10-31T08:39:54;9.50;;;5.72;;
39982;SDS011;25670;44.782;10.356;2022-10-31T08:42:21;18.45;;;6.80;;
39982;SDS011;25670;44.782;10.356;2022-10-31T08:44:48;13.15;;;6.47;;
39982;SDS011;25670;44.782;10.356;2022-10-31T08:47:14;15.13;;;6.43;;
39982;SDS011;25670;44.782;10.356;2022-10-31T08:49:40;19.02;;;8.32;;
39982;SDS011;25670;44.782;10.356;2022-10-31T08:52:07;16.83;;;7.28;;
39982;SDS011;25670;44.782;10.356;2022-10-31T08:54:37;7.38;;;6.55;;
39982;SDS011;25670;44.782;10.356;2022-10-31T08:57:36;11.25;;;6.95;;
39982;SDS011;25670;44.782;10.356;2022-10-31T09:00:02;14.52;;;7.18;;
39982;SDS011;25670;44.782;10.356;2022-10-31T09:02:56;19.88;;;6.97;;
39982;SDS011;25670;44.782;10.356;2022-10-31T09:05:29;18.00;;;7.82;;
39982;SDS011;25670;44.782;10.356;2022-10-31T09:07:57;16.48;;;8.05;;
39982;SDS011;25670;44.782;10.356;2022-10-31T09:10:25;15.30;;;7.10;;
39982;SDS011;25670;44.782;10.356;2022-10-31T09:12:59;11.32;;;7.07;;
39982;SDS011;25670;44.782;10.356;2022-10-31T09:15:48;19.30;;;8.25;;
39982;SDS011;25670;44.782;10.356;2022-10-31T09:18:22;20.02;;;8.35;;
39982;SDS011;25670;44.782;10.356;2022-10-31T09:20:58;12.90;;;7.47;;
39982;SDS011;25670;44.782;10.356;2022-10-31T09:23:28;13.15;;;7.65;;
39982;SDS011;25670;44.782;10.356;2022-10-31T09:25:54;12.40;;;7.78;;
39982;SDS011;25670;44.782;10.356;2022-10-31T09:28:41;20.42;;;7.95;;
39982;SDS011;25670;44.782;10.356;2022-10-31T09:31:13;16.77;;;7.15;;
39982;SDS011;25670;44.782;10.356;2022-10-31T09:33:46;26.58;;;9.02;;
39982;SDS011;25670;44.782;10.356;2022-10-31T09:36:35;17.83;;;8.88;;
39982;SDS011;25670;44.782;10.356;2022-10-31T09:39:05;15.73;;;10.00;;
39982;SDS011;25670;44.782;10.356;2022-10-31T09:50:24;18.55;;;9.90;;
39982;SDS011;25670;44.782;10.356;2022-10-31T09:53:03;17.45;;;9.93;;
39982;SDS011;25670;44.782;10.356;2022-10-31T09:55:40;23.10;;;11.05;;
39982;SDS011;25670;44.782;10.356;2022-10-31T09:58:15;23.70;;;10.07;;
39982;SDS011;25670;44.782;10.356;2022-10-31T10:00:52;17.52;;;10.30;;
39982;SDS011;25670;44.782;10.356;2022-10-31T10:06:06;22.42;;;10.18;;
39982;SDS011;25670;44.782;10.356;2022-10-31T10:09:14;17.88;;;10.15;;
39982;SDS011;25670;44.782;10.356;2022-10-31T10:15:05;27.00;;;12.83;;
39982;SDS011;25670;44.782;10.356;2022-10-31T10:27:03;12.60;;;9.45;;
39982;SDS011;25670;44.782;10.356;2022-10-31T10:29:46;29.02;;;13.93;;
39982;SDS011;25670;44.782;10.356;2022-10-31T10:32:19;30.48;;;12.77;;
39982;SDS011;25670;44.782;10.356;2022-10-31T10:35:10;21.50;;;11.90;;
39982;SDS011;25670;44.782;10.356;2022-10-31T10:37:45;27.42;;;11.70;;
39982;SDS011;25670;44.782;10.356;2022-10-31T10:40:19;25.33;;;11.98;;
39982;SDS011;25670;44.782;10.356;2022-10-31T10:49:01;21.58;;;12.70;;
39982;SDS011;25670;44.782;10.356;2022-10-31T10:54:46;26.03;;;13.67;;
39982;SDS011;25670;44.782;10.356;2022-10-31T10:57:27;19.00;;;12.82;;
39982;SDS011;25670;44.782;10.356;2022-10-31T10:59:56;21.55;;;13.15;;
39982;SDS011;25670;44.782;10.356;2022-10-31T11:02:27;23.03;;;13.50;;
39982;SDS011;25670;44.782;10.356;2022-10-31T11:04:58;26.13;;;14.00;;
39982;SDS011;25670;44.782;10.356;2022-10-31T11:07:36;28.80;;;13.23;;
39982;SDS011;25670;44.782;10.356;2022-10-31T11:10:11;29.50;;;15.35;;
39982;SDS011;25670;44.782;10.356;2022-10-31T11:12:43;28.30;;;15.07;;
39982;SDS011;25670;44.782;10.356;2022-10-31T11:15:22;28.70;;;15.25;;
39982;SDS011;25670;44.782;10.356;2022-10-31T11:17:52;28.83;;;15.13;;
39982;SDS011;25670;44.782;10.356;2022-10-31T11:20:34;24.33;;;14.45;;
39982;SDS011;25670;44.782;10.356;2022-10-31T11:23:20;22.83;;;13.73;;
39982;SDS011;25670;44.782;10.356;2022-10-31T11:25:59;33.45;;;13.77;;
39982;SDS011;25670;44.782;10.356;2022-10-31T11:28:28;21.27;;;13.52;;
39982;SDS011;25670;44.782;10.356;2022-10-31T11:30:56;26.70;;;14.00;;
39982;SDS011;25670;44.782;10.356;2022-10-31T11:37:24;25.90;;;14.02;;
39982;SDS011;25670;44.782;10.356;2022-10-31T11:39:58;20.20;;;13.10;;
39982;SDS011;25670;44.782;10.356;2022-10-31T11:42:28;23.77;;;13.00;;
39982;SDS011;25670;44.782;10.356;2022-10-31T11:45:00;25.00;;;12.65;;
39982;SDS011;25670;44.782;10.356;2022-10-31T11:47:41;28.15;;;13.15;;
39982;SDS011;25670;44.782;10.356;2022-10-31T11:50:18;24.35;;;15.13;;
39982;SDS011;25670;44.782;10.356;2022-10-31T11:52:48;21.98;;;13.10;;
39982;SDS011;25670;44.782;10.356;2022-10-31T11:55:17;32.70;;;12.95;;
39982;SDS011;25670;44.782;10.356;2022-10-31T11:58:04;27.25;;;13.38;;
39982;SDS011;25670;44.782;10.356;2022-10-31T12:00:48;34.83;;;15.02;;
39982;SDS011;25670;44.782;10.356;2022-10-31T12:06:34;21.90;;;13.68;;
39982;SDS011;25670;44.782;10.356;2022-10-31T12:08:49;25.25;;;12.27;;
39982;SDS011;25670;44.782;10.356;2022-10-31T12:38:30;16.88;;;11.57;;
39982;SDS011;25670;44.782;10.356;2022-10-31T12:43:59;21.85;;;11.35;;
39982;SDS011;25670;44.782;10.356;2022-10-31T12:58:35;21.85;;;11.23;;
39982;SDS011;25670;44.782;10.356;2022-10-31T13:01:34;22.13;;;11.88;;
39982;SDS011;25670;44.782;10.356;2022-10-31T13:04:03;23.10;;;12.02;;
39982;SDS011;25670;44.782;10.356;2022-10-31T13:06:40;24.48;;;12.38;;
39982;SDS011;25670;44.782;10.356;2022-10-31T13:09:18;17.20;;;11.57;;
39982;SDS011;25670;44.782;10.356;2022-10-31T13:11:50;21.83;;;12.05;;
39982;SDS011;25670;44.782;10.356;2022-10-31T13:16:52;25.33;;;10.80;;
39982;SDS011;25670;44.782;10.356;2022-10-31T13:19:25;20.23;;;11.75;;
39982;SDS011;25670;44.782;10.356;2022-10-31T13:22:07;13.38;;;8.02;;
39982;SDS011;25670;44.782;10.356;2022-10-31T13:25:02;22.83;;;11.40;;
39982;SDS011;25670;44.782;10.356;2022-10-31T13:30:14;23.08;;;11.60;;
39982;SDS011;25670;44.782;10.356;2022-10-31T13:35:39;22.27;;;12.15;;
39982;SDS011;25670;44.782;10.356;2022-10-31T13:38:30;17.88;;;10.48;;
39982;SDS011;25670;44.782;10.356;2022-10-31T13:41:05;15.38;;;12.80;;
39982;SDS011;25670;44.782;10.356;2022-10-31T13:48:58;20.08;;;10.48;;
39982;SDS011;25670;44.782;10.356;2022-10-31T13:51:25;18.38;;;12.60;;
39982;SDS011;25670;44.782;10.356;2022-10-31T13:54:01;18.67;;;9.85;;
39982;SDS011;25670;44.782;10.356;2022-10-31T13:56:47;21.58;;;13.48;;
39982;SDS011;25670;44.782;10.356;2022-10-31T13:59:19;13.25;;;9.75;;
39982;SDS011;25670;44.782;10.356;2022-10-31T14:01:51;28.02;;;12.27;;
39982;SDS011;25670;44.782;10.356;2022-10-31T14:04:28;11.25;;;9.32;;
39982;SDS011;25670;44.782;10.356;2022-10-31T14:07:23;21.65;;;9.55;;
39982;SDS011;25670;44.782;10.356;2022-10-31T14:15:14;14.85;;;10.07;;
39982;SDS011;25670;44.782;10.356;2022-10-31T14:17:53;21.05;;;9.63;;
39982;SDS011;25670;44.782;10.356;2022-10-31T14:22:50;23.60;;;11.63;;
39982;SDS011;25670;44.782;10.356;2022-10-31T14:28:00;15.02;;;10.60;;
39982;SDS011;25670;44.782;10.356;2022-10-31T14:30:29;18.13;;;10.95;;
39982;SDS011;25670;44.782;10.356;2022-10-31T14:36:04;18.50;;;10.77;;
39982;SDS011;25670;44.782;10.356;2022-10-31T14:52:11;15.80;;;9.75;;
39982;SDS011;25670;44.782;10.356;2022-10-31T14:54:44;14.00;;;9.40;;
39982;SDS011;25670;44.782;10.356;2022-10-31T14:57:27;22.60;;;12.02;;
39982;SDS011;25670;44.782;10.356;2022-10-31T15:00:01;17.60;;;9.43;;
39982;SDS011;25670;44.782;10.356;2022-10-31T15:05:10;16.98;;;9.13;;
39982;SDS011;25670;44.782;10.356;2022-10-31T15:07:47;12.38;;;8.82;;
39982;SDS011;25670;44.782;10.356;2022-10-31T15:10:36;26.30;;;10.47;;
39982;SDS011;25670;44.782;10.356;2022-10-31T15:13:40;20.90;;;9.52;;
39982;SDS011;25670;44.782;10.356;2022-10-31T15:15:55;13.52;;;10.85;;
39982;SDS011;25670;44.782;10.356;2022-10-31T15:18:25;18.67;;;11.98;;
39982;SDS011;25670;44.782;10.356;2022-10-31T15:26:20;21.02;;;12.63;;
39982;SDS011;25670;44.782;10.356;2022-10-31T15:29:17;22.70;;;12.80;;
39982;SDS011;25670;44.782;10.356;2022-10-31T15:31:51;26.55;;;12.10;;
39982;SDS011;25670;44.782;10.356;2022-10-31T15:34:23;21.40;;;9.15;;
39982;SDS011;25670;44.782;10.356;2022-10-31T15:37:05;21.73;;;9.30;;
39982;SDS011;25670;44.782;10.356;2022-10-31T15:39:42;18.52;;;9.32;;
39982;SDS011;25670;44.782;10.356;2022-10-31T15:42:24;16.77;;;9.23;;
39982;SDS011;25670;44.782;10.356;2022-10-31T15:44:52;20.52;;;10.32;;
39982;SDS011;25670;44.782;10.356;2022-10-31T15:47:26;17.45;;;8.77;;
39982;SDS011;25670;44.782;10.356;2022-10-31T15:49:56;28.40;;;10.02;;
39982;SDS011;25670;44.782;10.356;2022-10-31T15:52:26;21.58;;;10.00;;
39982;SDS011;25670;44.782;10.356;2022-10-31T15:54:55;26.35;;;10.30;;
39982;SDS011;25670;44.782;10.356;2022-10-31T15:57:25;30.42;;;10.85;;
39982;SDS011;25670;44.782;10.356;2022-10-31T15:59:52;29.13;;;10.48;;
39982;SDS011;25670;44.782;10.356;2022-10-31T16:02:23;28.17;;;11.07;;
39982;SDS011;25670;44.782;10.356;2022-10-31T16:07:22;38.00;;;13.30;;
39982;SDS011;25670;44.782;10.356;2022-10-31T16:09:50;31.30;;;15.30;;
39982;SDS011;25670;44.782;10.356;2022-10-31T16:12:19;33.08;;;12.82;;
39982;SDS011;25670;44.782;10.356;2022-10-31T16:14:48;24.25;;;10.13;;
39982;SDS011;25670;44.782;10.356;2022-10-31T16:17:19;28.77;;;11.93;;
39982;SDS011;25670;44.782;10.356;2022-10-31T16:19:52;27.23;;;11.23;;
39982;SDS011;25670;44.782;10.356;2022-10-31T16:22:35;24.23;;;11.93;;
39982;SDS011;25670;44.782;10.356;2022-10-31T16:27:40;24.52;;;11.00;;
39982;SDS011;25670;44.782;10.356;2022-10-31T16:38:53;33.33;;;17.52;;
39982;SDS011;25670;44.782;10.356;2022-10-31T16:41:20;29.05;;;15.65;;
39982;SDS011;25670;44.782;10.356;2022-10-31T16:43:47;33.35;;;13.80;;
39982;SDS011;25670;44.782;10.356;2022-10-31T16:46:23;24.25;;;12.70;;
39982;SDS011;25670;44.782;10.356;2022-10-31T16:48:51;32.13;;;12.98;;
39982;SDS011;25670;44.782;10.356;2022-10-31T16:51:19;31.40;;;13.10;;
39982;SDS011;25670;44.782;10.356;2022-10-31T16:53:45;28.30;;;15.20;;
39982;SDS011;25670;44.782;10.356;2022-10-31T16:56:14;45.38;;;17.88;;
39982;SDS011;25670;44.782;10.356;2022-10-31T16:59:02;32.95;;;13.82;;
39982;SDS011;25670;44.782;10.356;2022-10-31T17:01:32;28.42;;;12.45;;
39982;SDS011;25670;44.782;10.356;2022-10-31T17:04:00;25.83;;;12.68;;
39982;SDS011;25670;44.782;10.356;2022-10-31T17:06:26;23.15;;;12.52;;
39982;SDS011;25670;44.782;10.356;2022-10-31T17:08:53;38.47;;;13.80;;
39982;SDS011;25670;44.782;10.356;2022-10-31T17:11:21;24.48;;;13.65;;
39982;SDS011;25670;44.782;10.356;2022-10-31T17:13:50;29.45;;;14.38;;
39982;SDS011;25670;44.782;10.356;2022-10-31T17:16:17;28.75;;;12.68;;
39982;SDS011;25670;44.782;10.356;2022-10-31T17:18:46;34.47;;;13.88;;
39982;SDS011;25670;44.782;10.356;2022-10-31T17:21:23;28.10;;;13.82;;
39982;SDS011;25670;44.782;10.356;2022-10-31T17:23:51;29.95;;;14.07;;
39982;SDS011;25670;44.782;10.356;2022-10-31T17:26:17;35.67;;;14.25;;
39982;SDS011;25670;44.782;10.356;2022-10-31T17:28:44;36.08;;;14.88;;
39982;SDS011;25670;44.782;10.356;2022-10-31T17:31:25;37.60;;;16.70;;
39982;SDS011;25670;44.782;10.356;2022-10-31T17:33:56;40.22;;;16.42;;
39982;SDS011;25670;44.782;10.356;2022-10-31T17:36:24;31.48;;;15.57;;
39982;SDS011;25670;44.782;10.356;2022-10-31T17:38:51;32.10;;;17.73;;
39982;SDS011;25670;44.782;10.356;2022-10-31T17:41:17;46.33;;;18.00;;
39982;SDS011;25670;44.782;10.356;2022-10-31T17:43:44;38.88;;;16.60;;
39982;SDS011;25670;44.782;10.356;2022-10-31T17:46:10;49.15;;;20.58;;
39982;SDS011;25670;44.782;10.356;2022-10-31T17:48:37;37.13;;;17.75;;
39982;SDS011;25670;44.782;10.356;2022-10-31T17:51:04;48.60;;;16.95;;
39982;SDS011;25670;44.782;10.356;2022-10-31T17:53:32;42.47;;;19.05;;
39982;SDS011;25670;44.782;10.356;2022-10-31T17:56:06;47.40;;;19.52;;
39982;SDS011;25670;44.782;10.356;2022-10-31T17:58:34;48.22;;;21.55;;
39982;SDS011;25670;44.782;10.356;2022-10-31T18:01:06;60.58;;;19.98;;